Time;durP1;ratioP1;P1;durP2;ratioP2;P2;SDS_P1;SDS_P2;PMS_P1;PMS_P2;Temp;Humidity;BMP_temperature;BMP_pressure;BME280_temperature;BME280_humidity;BME280_pressure;Samples;Min_cycle;Max_cycle;Signal;HPM_P1;HPM_P2
2021/11/24 00:02:23;;;;;;;0.40;0.20;;;-0.10;99.90;;;;;;4971871;28;20729;-69
2021/11/24 00:04:49;;;;;;;1.60;0.70;;;-0.20;99.90;;;;;;4970474;28;20388;-69
2021/11/24 00:07:14;;;;;;;0.60;0.60;;;-0.20;99.90;;;;;;4959670;28;20397;-69
2021/11/24 00:09:40;;;;;;;0.40;0.20;;;-0.20;99.90;;;;;;4953738;28;20445;-69
2021/11/24 00:12:06;;;;;;;0.40;0.20;;;-0.30;99.90;;;;;;4955438;29;20394;-69
2021/11/24 00:14:32;;;;;;;0.40;0.20;;;-0.30;99.90;;;;;;4956241;29;20765;-69
2021/11/24 00:16:58;;;;;;;0.60;0.60;;;-0.50;99.90;;;;;;4955354;29;20405;-69
2021/11/24 00:19:23;;;;;;;0.50;0.50;;;-0.50;99.90;;;;;;4956005;29;20398;-69
2021/11/24 00:21:49;;;;;;;0.40;0.20;;;-0.50;99.90;;;;;;4955947;29;20923;-69
2021/11/24 00:24:15;;;;;;;0.40;0.20;;;-0.40;99.90;;;;;;4955971;28;20447;-69
2021/11/24 00:26:40;;;;;;;0.40;0.20;;;-0.40;99.90;;;;;;4955693;29;20421;-69
2021/11/24 00:29:06;;;;;;;0.40;0.20;;;-0.50;99.90;;;;;;4970368;28;20390;-69
2021/11/24 00:31:32;;;;;;;0.40;0.30;;;-0.50;99.90;;;;;;4956129;29;20481;-69
2021/11/24 00:34:00;;;;;;;0.40;0.20;;;-0.50;99.90;;;;;;4955977;29;20400;-70
2021/11/24 00:36:26;;;;;;;0.40;0.20;;;-0.50;99.90;;;;;;4939118;29;20501;-68
2021/11/24 00:38:52;;;;;;;0.50;0.50;;;-0.50;99.90;;;;;;4955914;28;20394;-68
2021/11/24 00:41:18;;;;;;;0.40;0.20;;;-0.50;99.90;;;;;;4955010;29;20394;-69
2021/11/24 00:43:44;;;;;;;0.50;0.40;;;-0.40;99.90;;;;;;4955847;29;20382;-69
2021/11/24 00:46:10;;;;;;;0.40;0.20;;;-0.50;99.90;;;;;;4955306;29;20449;-69
2021/11/24 00:48:36;;;;;;;0.40;0.20;;;-0.40;99.90;;;;;;4955790;29;20485;-68
2021/11/24 00:51:01;;;;;;;0.40;0.20;;;-0.40;99.90;;;;;;4975092;28;20408;-69
2021/11/24 00:53:27;;;;;;;0.40;0.20;;;-0.40;99.90;;;;;;4974337;28;20900;-68
2021/11/24 00:55:53;;;;;;;0.40;0.30;;;-0.30;99.90;;;;;;4975146;28;20393;-69
2021/11/24 00:58:19;;;;;;;0.50;0.30;;;-0.20;99.90;;;;;;4992346;28;20594;-69
2021/11/24 01:00:46;;;;;;;0.40;0.20;;;-0.40;99.90;;;;;;5013784;28;20389;-68
2021/11/24 01:03:13;;;;;;;0.60;0.60;;;-0.40;99.90;;;;;;5013511;28;20746;-68
2021/11/24 01:05:39;;;;;;;0.40;0.20;;;-0.40;99.90;;;;;;5013179;28;20762;-68
2021/11/24 01:08:05;;;;;;;0.40;0.20;;;-0.30;99.90;;;;;;5013740;28;20417;-69
2021/11/24 01:10:30;;;;;;;0.40;0.20;;;-0.40;99.90;;;;;;5012923;28;20424;-69
2021/11/24 01:12:56;;;;;;;0.40;0.20;;;-0.40;99.90;;;;;;4996188;28;20417;-69
2021/11/24 01:15:22;;;;;;;0.40;0.30;;;-0.40;99.90;;;;;;5013447;28;20429;-69
2021/11/24 01:17:48;;;;;;;0.40;0.20;;;-0.40;99.90;;;;;;5012621;28;20472;-68
2021/11/24 01:20:15;;;;;;;0.40;0.20;;;-0.50;99.90;;;;;;5013271;28;20393;-68
2021/11/24 01:22:41;;;;;;;0.40;0.20;;;-0.40;99.90;;;;;;5012866;28;20727;-69
2021/11/24 01:25:08;;;;;;;0.40;0.30;;;-0.50;99.90;;;;;;5012931;28;20885;-70
2021/11/24 01:27:34;;;;;;;1.40;0.70;;;-0.40;99.90;;;;;;5013386;28;20750;-69
2021/11/24 01:30:00;;;;;;;0.40;0.20;;;-0.40;99.90;;;;;;5012743;28;20377;-69
2021/11/24 01:32:26;;;;;;;0.40;0.20;;;-0.60;99.90;;;;;;5013319;28;20431;-68
2021/11/24 01:34:51;;;;;;;0.40;0.20;;;-0.80;99.90;;;;;;5012752;28;20464;-69
2021/11/24 01:37:17;;;;;;;0.40;0.20;;;-0.70;99.90;;;;;;5013217;28;20384;-68
2021/11/24 01:39:43;;;;;;;0.40;0.20;;;-0.80;99.90;;;;;;5013127;28;20389;-68
2021/11/24 01:42:10;;;;;;;0.40;0.20;;;-0.80;99.90;;;;;;4994962;28;20388;-68
2021/11/24 01:44:35;;;;;;;0.40;0.20;;;-0.90;99.90;;;;;;5012947;28;20385;-69
2021/11/24 01:47:04;;;;;;;7.90;1.00;;;-0.80;99.90;;;;;;5012485;28;20412;-69
2021/11/24 01:49:30;;;;;;;0.40;0.20;;;-0.90;99.90;;;;;;5005530;28;20403;-68
2021/11/24 01:51:57;;;;;;;0.40;0.20;;;-0.80;99.90;;;;;;4975355;28;20776;-69
2021/11/24 01:54:23;;;;;;;0.40;0.20;;;-0.70;99.90;;;;;;4993227;28;20434;-69
2021/11/24 01:56:49;;;;;;;0.40;0.20;;;-0.80;99.90;;;;;;4993308;28;20446;-68
2021/11/24 01:59:15;;;;;;;0.40;0.20;;;-0.60;99.90;;;;;;4975707;28;20866;-69
2021/11/24 02:01:43;;;;;;;0.70;0.50;;;-0.80;99.90;;;;;;4973495;28;20384;-69
2021/11/24 02:04:10;;;;;;;0.40;0.20;;;-0.90;99.90;;;;;;4972833;28;20865;-70
2021/11/24 02:06:36;;;;;;;0.40;0.20;;;-0.80;99.90;;;;;;4973686;28;20491;-69
2021/11/24 02:09:03;;;;;;;0.70;0.68;;;-1.10;99.90;;;;;;4973502;28;20488;-69
2021/11/24 02:11:29;;;;;;;0.40;0.20;;;-1.00;99.90;;;;;;4972971;28;20400;-69
2021/11/24 02:13:54;;;;;;;0.40;0.20;;;-0.90;99.90;;;;;;4973456;28;20884;-69
2021/11/24 02:16:20;;;;;;;0.40;0.20;;;-1.00;99.90;;;;;;4972898;28;20439;-70
2021/11/24 02:18:46;;;;;;;0.40;0.20;;;-1.00;99.90;;;;;;4973260;28;20395;-69
2021/11/24 02:21:11;;;;;;;0.40;0.20;;;-1.10;99.90;;;;;;4973592;28;20475;-69
2021/11/24 02:23:37;;;;;;;0.40;0.20;;;-1.00;99.90;;;;;;4972771;28;20874;-69
2021/11/24 02:26:03;;;;;;;0.60;0.50;;;-1.10;99.90;;;;;;4973298;28;20506;-70
2021/11/24 02:28:29;;;;;;;0.40;0.20;;;-1.10;99.90;;;;;;4955456;28;20388;-69
2021/11/24 02:30:55;;;;;;;0.40;0.20;;;-1.10;99.90;;;;;;4973374;28;20411;-68
2021/11/24 02:33:21;;;;;;;0.40;0.30;;;-1.10;99.90;;;;;;4972204;28;20908;-68
2021/11/24 02:35:47;;;;;;;0.40;0.30;;;-1.10;99.90;;;;;;4972511;28;20858;-68
2021/11/24 02:38:17;;;;;;;0.40;0.20;;;-1.10;99.90;;;;;;4972845;28;20780;-68
2021/11/24 02:40:43;;;;;;;0.80;0.70;;;-1.10;99.90;;;;;;4972381;28;20385;-68
2021/11/24 02:43:09;;;;;;;0.40;0.20;;;-1.10;99.90;;;;;;4972893;28;20437;-69
2021/11/24 02:45:36;;;;;;;0.40;0.20;;;-1.10;99.90;;;;;;4972088;28;20443;-68
2021/11/24 02:48:02;;;;;;;0.40;0.20;;;-1.10;99.90;;;;;;4972746;28;20384;-69
2021/11/24 02:50:28;;;;;;;0.40;0.20;;;-1.00;99.90;;;;;;4987466;28;20740;-68
2021/11/24 02:52:54;;;;;;;0.40;0.20;;;-1.10;99.90;;;;;;4991417;28;20625;-69
2021/11/24 02:55:21;;;;;;;0.40;0.20;;;-1.10;99.90;;;;;;4992523;28;20401;-69
2021/11/24 02:57:49;;;;;;;0.40;0.20;;;-1.10;99.90;;;;;;4996211;28;20388;-69
2021/11/24 03:00:17;;;;;;;0.50;0.40;;;-1.00;99.90;;;;;;5011692;28;20420;-69
2021/11/24 03:02:44;;;;;;;0.60;0.60;;;-0.90;99.90;;;;;;5011620;28;20480;-69
2021/11/24 03:05:11;;;;;;;0.50;0.50;;;-1.10;99.90;;;;;;5011329;28;20429;-69
2021/11/24 03:07:37;;;;;;;0.40;0.20;;;-1.00;99.90;;;;;;5011718;28;20391;-69
2021/11/24 03:10:04;;;;;;;0.40;0.20;;;-1.00;99.90;;;;;;5010923;28;20400;-69
2021/11/24 03:12:30;;;;;;;0.40;0.20;;;-0.90;99.90;;;;;;5011722;28;20495;-69
2021/11/24 03:14:56;;;;;;;0.40;0.30;;;-0.70;99.90;;;;;;5010899;28;20381;-69
2021/11/24 03:17:21;;;;;;;0.40;0.20;;;-0.80;99.90;;;;;;5011238;28;20400;-69
2021/11/24 03:19:48;;;;;;;0.40;0.20;;;-0.90;99.90;;;;;;5011350;28;20490;-69
2021/11/24 03:22:21;;;;;;;0.40;0.20;;;-0.90;99.90;;;;;;5010852;28;20778;-69
2021/11/24 03:24:53;;;;;;;0.40;0.20;;;-0.90;99.90;;;;;;5011506;28;20420;-69
2021/11/24 03:27:18;;;;;;;0.40;0.20;;;-1.00;99.90;;;;;;5010762;28;20413;-69
2021/11/24 03:29:44;;;;;;;0.40;0.40;;;-1.00;99.90;;;;;;5011402;28;20535;-69
2021/11/24 03:32:10;;;;;;;0.40;0.20;;;-1.00;99.90;;;;;;5010780;28;20377;-69
2021/11/24 03:34:35;;;;;;;0.40;0.20;;;-1.10;99.90;;;;;;5011175;28;20395;-69
2021/11/24 03:37:01;;;;;;;0.40;0.20;;;-1.10;99.90;;;;;;5011289;28;20402;-70
2021/11/24 03:39:27;;;;;;;0.40;0.20;;;-1.20;99.90;;;;;;5010540;28;20385;-69
2021/11/24 03:41:52;;;;;;;0.40;0.20;;;-1.20;99.90;;;;;;5011171;28;20377;-69
2021/11/24 03:44:18;;;;;;;0.40;0.20;;;-1.20;99.90;;;;;;5010449;28;20393;-69
2021/11/24 03:46:43;;;;;;;0.40;0.20;;;-1.10;99.90;;;;;;5010877;28;20452;-69
2021/11/24 03:49:09;;;;;;;0.40;0.40;;;-1.20;99.90;;;;;;5010848;28;20409;-69
2021/11/24 03:51:35;;;;;;;2.20;0.80;;;-1.20;99.90;;;;;;5010737;28;20440;-69
2021/11/24 03:54:01;;;;;;;0.40;0.20;;;-1.20;99.90;;;;;;5011354;28;20396;-69
2021/11/24 03:56:26;;;;;;;0.40;0.30;;;-1.20;99.90;;;;;;5010386;28;20861;-69
2021/11/24 03:58:52;;;;;;;0.40;0.20;;;-1.30;99.90;;;;;;4997373;28;20421;-69
2021/11/24 04:01:17;;;;;;;0.40;0.20;;;-1.40;99.90;;;;;;4991023;28;20397;-69
2021/11/24 04:03:43;;;;;;;1.00;0.80;;;-1.30;99.90;;;;;;4990776;28;20894;-69
2021/11/24 04:06:09;;;;;;;0.40;0.30;;;-1.20;99.90;;;;;;4991145;28;20763;-69
2021/11/24 04:08:34;;;;;;;0.40;0.20;;;-1.20;99.90;;;;;;4990791;28;20453;-70
2021/11/24 04:11:00;;;;;;;0.40;0.20;;;-1.10;99.90;;;;;;4991211;28;20394;-69
2021/11/24 04:13:26;;;;;;;0.40;0.30;;;-1.20;99.90;;;;;;4991255;28;20386;-69
2021/11/24 04:15:51;;;;;;;0.40;0.20;;;-1.30;99.90;;;;;;4990470;28;20390;-69
2021/11/24 04:18:17;;;;;;;0.40;0.20;;;-1.30;99.90;;;;;;4991112;28;20743;-69
2021/11/24 04:20:43;;;;;;;0.40;0.20;;;-1.30;99.90;;;;;;4990495;28;20863;-70
2021/11/24 04:23:09;;;;;;;0.40;0.20;;;-1.30;99.90;;;;;;4973972;28;20401;-69
2021/11/24 04:25:34;;;;;;;0.40;0.20;;;-1.20;99.90;;;;;;4990684;28;20879;-69
2021/11/24 04:28:00;;;;;;;0.40;0.20;;;-1.30;99.90;;;;;;4990551;28;20422;-69
2021/11/24 04:30:26;;;;;;;0.40;0.20;;;-1.20;99.90;;;;;;4991174;28;20386;-69
2021/11/24 04:32:52;;;;;;;0.40;0.20;;;-1.20;99.90;;;;;;4990639;28;20403;-70
2021/11/24 04:35:18;;;;;;;0.50;0.40;;;-1.20;99.90;;;;;;4990725;28;20414;-69
2021/11/24 04:37:44;;;;;;;0.40;0.20;;;-1.30;99.90;;;;;;4973955;28;20410;-69
2021/11/24 04:40:10;;;;;;;0.40;0.20;;;-1.30;99.90;;;;;;4990406;28;20422;-69
2021/11/24 04:42:38;;;;;;;0.40;0.20;;;-1.20;99.90;;;;;;4991142;28;20390;-70
2021/11/24 04:45:04;;;;;;;0.40;0.20;;;-1.20;99.90;;;;;;4990595;28;20537;-70
2021/11/24 04:47:30;;;;;;;0.40;0.20;;;-1.20;99.90;;;;;;4973413;28;20422;-70
2021/11/24 04:49:55;;;;;;;0.47;0.35;;;-1.10;99.90;;;;;;4990564;28;20414;-70
2021/11/24 04:52:21;;;;;;;0.40;0.20;;;-1.20;99.90;;;;;;4990287;28;20804;-69
2021/11/24 04:54:47;;;;;;;0.40;0.20;;;-1.10;99.90;;;;;;4990950;28;20382;-69
2021/11/24 04:57:12;;;;;;;0.40;0.20;;;-1.20;99.90;;;;;;4993593;28;20382;-69
2021/11/24 04:59:39;;;;;;;0.40;0.20;;;-1.20;99.90;;;;;;5013961;28;20396;-68
2021/11/24 05:02:05;;;;;;;0.40;0.20;;;-1.20;99.90;;;;;;5014145;28;20385;-69
2021/11/24 05:04:30;;;;;;;0.40;0.20;;;-1.30;99.90;;;;;;5013614;28;20389;-69
2021/11/24 05:06:56;;;;;;;0.40;0.20;;;-1.30;99.90;;;;;;5014044;28;20805;-69
2021/11/24 05:09:21;;;;;;;0.40;0.20;;;-1.30;99.90;;;;;;5013544;28;20395;-69
2021/11/24 05:11:47;;;;;;;0.40;0.20;;;-1.20;99.90;;;;;;5013786;28;20377;-69
2021/11/24 05:14:18;;;;;;;0.40;0.20;;;-1.30;99.90;;;;;;5013992;28;20377;-69
2021/11/24 05:16:47;;;;;;;0.40;0.20;;;-1.30;99.90;;;;;;4997359;28;20392;-69
2021/11/24 05:19:18;;;;;;;0.70;0.60;;;-1.40;99.90;;;;;;5013727;28;20416;-69
2021/11/24 05:21:45;;;;;;;0.40;0.20;;;-1.30;99.90;;;;;;5013254;28;20436;-70
2021/11/24 05:24:11;;;;;;;0.40;0.20;;;-1.30;99.90;;;;;;5013829;28;20389;-69
2021/11/24 05:26:37;;;;;;;0.40;0.20;;;-1.40;99.90;;;;;;5013093;28;20466;-69
2021/11/24 05:29:03;;;;;;;0.40;0.20;;;-1.40;99.90;;;;;;5013792;28;20465;-69
2021/11/24 05:31:29;;;;;;;0.40;0.40;;;-1.40;99.90;;;;;;5013083;28;20417;-70
2021/11/24 05:33:55;;;;;;;0.40;0.20;;;-1.40;99.90;;;;;;5013780;28;20921;-69
2021/11/24 05:36:21;;;;;;;0.40;0.20;;;-1.50;99.90;;;;;;5013470;28;20460;-69
2021/11/24 05:38:47;;;;;;;0.40;0.20;;;-1.60;99.90;;;;;;5012642;28;20849;-69
2021/11/24 05:41:14;;;;;;;0.40;0.20;;;-1.50;99.90;;;;;;5013155;28;20385;-69
2021/11/24 05:43:40;;;;;;;0.60;0.60;;;-1.40;99.90;;;;;;4995313;28;20909;-69
2021/11/24 05:46:16;;;;;;;0.40;0.20;;;-1.50;99.90;;;;;;5013315;28;20428;-69
2021/11/24 05:48:46;;;;;;;0.40;0.30;;;-1.60;99.90;;;;;;5012066;28;20425;-69
2021/11/24 05:51:12;;;;;;;0.80;0.80;;;-1.60;99.90;;;;;;4993858;28;20418;-69
2021/11/24 05:53:38;;;;;;;0.40;0.20;;;-1.50;99.90;;;;;;4976548;28;20383;-69
2021/11/24 05:56:04;;;;;;;0.40;0.20;;;-1.40;99.90;;;;;;4993014;28;20401;-69
2021/11/24 05:58:30;;;;;;;0.40;0.20;;;-1.70;99.90;;;;;;4983084;28;20400;-69
2021/11/24 06:00:56;;;;;;;0.40;0.30;;;-1.70;99.90;;;;;;4973461;28;20444;-69
2021/11/24 06:03:22;;;;;;;0.40;0.30;;;-1.80;99.90;;;;;;4974119;28;20479;-69
2021/11/24 06:05:48;;;;;;;0.40;0.20;;;-1.60;99.90;;;;;;4973622;28;20777;-69
2021/11/24 06:08:14;;;;;;;0.40;0.20;;;-1.70;99.90;;;;;;4972097;28;20405;-69
2021/11/24 06:10:40;;;;;;;0.40;0.20;;;-1.70;99.90;;;;;;4956447;28;20517;-69
2021/11/24 06:13:06;;;;;;;0.70;0.60;;;-1.60;99.90;;;;;;4973015;28;20424;-69
2021/11/24 06:15:32;;;;;;;0.40;0.20;;;-1.70;99.90;;;;;;4973746;28;20396;-69
2021/11/24 06:17:58;;;;;;;0.40;0.28;;;-1.80;99.90;;;;;;4966552;28;20470;-69
2021/11/24 06:20:25;;;;;;;0.40;0.22;;;-1.70;99.90;;;;;;4954377;29;20779;-69
2021/11/24 06:22:50;;;;;;;0.40;0.30;;;-1.80;99.90;;;;;;4954244;29;20382;-69
2021/11/24 06:25:17;;;;;;;0.70;0.60;;;-1.80;99.90;;;;;;4953436;29;20398;-69
2021/11/24 06:27:44;;;;;;;0.40;0.20;;;-1.70;99.90;;;;;;4954178;29;20477;-68
2021/11/24 06:30:13;;;;;;;0.40;0.30;;;-1.70;99.90;;;;;;4953556;29;20457;-69
2021/11/24 06:32:39;;;;;;;0.40;0.20;;;-1.70;99.90;;;;;;4954096;29;20393;-69
2021/11/24 06:35:05;;;;;;;0.40;0.20;;;-1.70;99.90;;;;;;4953826;29;20480;-68
2021/11/24 06:37:31;;;;;;;0.40;0.20;;;-1.60;99.90;;;;;;4952926;29;20390;-69
2021/11/24 06:39:57;;;;;;;0.40;0.20;;;-1.60;99.90;;;;;;4957009;28;20421;-69
2021/11/24 06:42:23;;;;;;;1.50;0.60;;;-1.60;99.90;;;;;;4942181;29;20409;-69
2021/11/24 06:44:48;;;;;;;0.40;0.20;;;-1.60;99.90;;;;;;4949255;29;20397;-69
2021/11/24 06:47:16;;;;;;;0.60;0.57;;;-1.60;99.90;;;;;;4968578;28;20424;-69
2021/11/24 06:49:43;;;;;;;0.40;0.20;;;-1.70;99.90;;;;;;4971442;28;20420;-69
2021/11/24 06:52:09;;;;;;;0.40;0.20;;;-1.60;99.90;;;;;;4972686;28;20512;-68
2021/11/24 06:54:34;;;;;;;0.40;0.30;;;-1.50;99.90;;;;;;4971767;28;20487;-68
2021/11/24 06:57:00;;;;;;;0.40;0.20;;;-1.60;99.90;;;;;;4972342;28;20942;-68
2021/11/24 06:59:26;;;;;;;0.40;0.20;;;-1.60;99.90;;;;;;4990853;28;20394;-69
2021/11/24 07:01:51;;;;;;;0.40;0.20;;;-1.60;99.90;;;;;;4991500;28;20863;-68
2021/11/24 07:04:17;;;;;;;1.50;1.00;;;-1.70;99.90;;;;;;4991422;28;20756;-68
2021/11/24 07:06:43;;;;;;;0.40;0.20;;;-1.60;99.90;;;;;;4990769;28;20418;-68
2021/11/24 07:09:13;;;;;;;0.40;0.40;;;-1.60;99.90;;;;;;4991886;28;20477;-68
2021/11/24 07:11:39;;;;;;;0.40;0.20;;;-1.50;99.90;;;;;;4991080;28;20490;-69
2021/11/24 07:14:05;;;;;;;0.40;0.20;;;-1.60;99.90;;;;;;4991941;28;20382;-68
2021/11/24 07:16:31;;;;;;;0.50;0.50;;;-1.50;99.90;;;;;;4991781;28;20387;-68
2021/11/24 07:18:57;;;;;;;0.40;0.20;;;-1.50;99.90;;;;;;4990323;28;20377;-68
2021/11/24 07:21:22;;;;;;;0.40;0.20;;;-1.50;99.90;;;;;;4974014;28;20422;-68
2021/11/24 07:23:48;;;;;;;0.40;0.20;;;-1.40;99.90;;;;;;4990753;28;20385;-68
2021/11/24 07:26:14;;;;;;;0.40;0.30;;;-1.50;99.90;;;;;;4973606;28;20478;-68
2021/11/24 07:28:42;;;;;;;0.40;0.20;;;-1.60;99.90;;;;;;4991252;28;20387;-68
2021/11/24 07:31:09;;;;;;;0.50;0.45;;;-1.50;99.90;;;;;;4991152;28;20429;-68
2021/11/24 07:33:35;;;;;;;0.40;0.20;;;-1.30;99.90;;;;;;4974198;28;20383;-68
2021/11/24 07:36:01;;;;;;;0.40;0.20;;;-1.40;99.90;;;;;;4990723;28;20426;-69
2021/11/24 07:38:27;;;;;;;0.40;0.20;;;-1.30;99.90;;;;;;4991707;28;20425;-68
2021/11/24 07:40:53;;;;;;;0.40;0.20;;;-1.20;99.90;;;;;;4990569;28;20391;-69
2021/11/24 07:43:19;;;;;;;0.40;0.20;;;-1.10;99.90;;;;;;4973172;28;20403;-69
2021/11/24 07:45:45;;;;;;;0.40;0.20;;;-1.10;99.90;;;;;;4987173;28;20451;-68
2021/11/24 07:48:11;;;;;;;0.40;0.20;;;-1.10;99.90;;;;;;4979033;28;20378;-68
2021/11/24 07:50:37;;;;;;;0.40;0.20;;;-1.10;99.90;;;;;;4975117;28;20439;-69
2021/11/24 07:53:03;;;;;;;0.88;0.82;;;-1.00;99.90;;;;;;4953612;28;20434;-69
2021/11/24 07:55:29;;;;;;;0.40;0.20;;;-1.00;99.90;;;;;;4971618;28;20487;-68
2021/11/24 07:57:54;;;;;;;0.40;0.20;;;-1.00;99.90;;;;;;4977744;28;20481;-68
2021/11/24 08:00:20;;;;;;;0.40;0.20;;;-1.00;99.90;;;;;;4990348;28;20395;-68
2021/11/24 08:02:46;;;;;;;0.40;0.20;;;-0.90;99.90;;;;;;4991246;28;20410;-68
2021/11/24 08:05:12;;;;;;;0.40;0.20;;;-0.80;99.90;;;;;;4990686;28;20386;-69
2021/11/24 08:07:38;;;;;;;0.40;0.20;;;-0.80;99.90;;;;;;4959886;28;20388;-68
2021/11/24 08:10:06;;;;;;;1.20;0.70;;;-0.70;99.90;;;;;;4971742;28;20393;-68
2021/11/24 08:12:32;;;;;;;0.70;0.60;;;-0.70;99.90;;;;;;4953594;28;20393;-69
2021/11/24 08:14:58;;;;;;;0.40;0.20;;;-0.80;99.90;;;;;;4954342;28;20396;-69
2021/11/24 08:17:24;;;;;;;0.40;0.35;;;-0.70;99.90;;;;;;4970934;28;20399;-69
2021/11/24 08:19:49;;;;;;;0.80;0.50;;;-0.60;99.90;;;;;;4971725;28;20408;-68
2021/11/24 08:22:15;;;;;;;0.40;0.30;;;-0.60;99.90;;;;;;4971615;28;20388;-70
2021/11/24 08:24:41;;;;;;;0.40;0.20;;;-0.60;99.90;;;;;;4970594;28;20396;-70
2021/11/24 08:27:07;;;;;;;0.40;0.20;;;-0.40;99.90;;;;;;4971196;28;20416;-69
2021/11/24 08:29:33;;;;;;;0.60;0.40;;;-0.20;99.90;;;;;;4953473;28;20396;-69
2021/11/24 08:31:59;;;;;;;0.60;0.60;;;-0.20;99.90;;;;;;4974362;28;20422;-70
2021/11/24 08:34:25;;;;;;;0.50;0.50;;;-0.10;99.90;;;;;;4975210;28;20416;-69
2021/11/24 08:36:52;;;;;;;1.80;0.80;;;0.00;99.90;;;;;;4974531;28;20388;-69
2021/11/24 08:39:18;;;;;;;0.40;0.20;;;0.00;99.90;;;;;;4975296;28;20763;-70
2021/11/24 08:41:46;;;;;;;0.40;0.20;;;0.10;99.90;;;;;;4974269;28;20388;-69
2021/11/24 08:44:12;;;;;;;0.40;0.30;;;0.10;99.90;;;;;;4975177;28;20518;-69
2021/11/24 08:46:39;;;;;;;0.40;0.20;;;0.20;99.90;;;;;;4974353;28;20514;-70
2021/11/24 08:49:05;;;;;;;0.50;0.50;;;0.20;99.90;;;;;;4974616;28;20446;-69
2021/11/24 08:51:35;;;;;;;0.50;0.47;;;0.20;99.90;;;;;;4994342;28;20402;-69
2021/11/24 08:54:02;;;;;;;0.40;0.20;;;0.30;99.90;;;;;;4993763;28;20382;-69
2021/11/24 08:56:30;;;;;;;0.40;0.20;;;0.40;99.90;;;;;;4974334;28;20500;-70
2021/11/24 08:58:56;;;;;;;0.70;0.70;;;0.40;99.90;;;;;;4983495;28;20793;-69
2021/11/24 09:01:24;;;;;;;0.40;0.30;;;0.50;99.90;;;;;;4988947;28;20430;-69
2021/11/24 09:03:49;;;;;;;1.10;1.00;;;0.60;99.90;;;;;;4973486;28;20455;-70
2021/11/24 09:06:15;;;;;;;0.40;0.40;;;0.70;99.90;;;;;;4974212;28;20499;-69
2021/11/24 09:08:41;;;;;;;0.40;0.20;;;0.70;99.90;;;;;;4974373;28;20758;-70
2021/11/24 09:11:06;;;;;;;2.50;0.80;;;0.90;99.90;;;;;;4973875;28;20389;-70
2021/11/24 09:13:32;;;;;;;0.40;0.30;;;0.90;99.90;;;;;;4974459;28;20754;-69
2021/11/24 09:15:58;;;;;;;0.40;0.20;;;0.90;99.90;;;;;;4988774;28;20954;-70
2021/11/24 09:18:23;;;;;;;0.40;0.20;;;0.80;99.90;;;;;;4974736;28;20392;-69
2021/11/24 09:20:49;;;;;;;0.40;0.20;;;1.00;99.90;;;;;;4974816;28;20392;-69
2021/11/24 09:23:18;;;;;;;0.40;0.20;;;1.20;99.90;;;;;;4973859;28;20491;-70
2021/11/24 09:26:01;;;;;;;1.10;1.00;;;1.30;99.90;;;;;;4974001;28;20899;-69
2021/11/24 09:28:35;;;;;;;0.40;0.20;;;1.40;99.90;;;;;;4974147;28;20463;-69
2021/11/24 09:31:04;;;;;;;0.40;0.20;;;1.50;99.90;;;;;;4974300;28;20773;-69
2021/11/24 09:33:30;;;;;;;0.40;0.20;;;1.50;99.90;;;;;;4974512;28;20400;-69
2021/11/24 09:35:56;;;;;;;0.40;0.20;;;1.50;99.90;;;;;;4974364;28;20419;-69
2021/11/24 09:38:23;;;;;;;0.40;0.22;;;1.60;99.90;;;;;;4973351;28;20408;-69
2021/11/24 09:40:50;;;;;;;1.40;0.90;;;1.80;99.90;;;;;;4974145;28;20395;-69
2021/11/24 09:43:17;;;;;;;0.40;0.20;;;1.80;99.90;;;;;;4972991;28;20384;-70
2021/11/24 09:45:45;;;;;;;0.40;0.30;;;1.90;99.90;;;;;;4974107;28;20451;-70
2021/11/24 09:48:17;;;;;;;0.40;0.20;;;1.80;99.90;;;;;;4973422;28;20793;-71
2021/11/24 09:50:46;;;;;;;0.40;0.30;;;1.70;99.90;;;;;;4990918;28;20445;-69
2021/11/24 09:53:14;;;;;;;0.40;0.20;;;1.70;99.90;;;;;;4993283;28;20740;-70
2021/11/24 09:55:41;;;;;;;0.40;0.30;;;1.60;99.90;;;;;;4992737;28;20398;-70
2021/11/24 09:58:09;;;;;;;0.60;0.50;;;1.50;99.90;;;;;;4992895;28;20382;-70
2021/11/24 10:00:38;;;;;;;0.40;0.20;;;1.70;99.90;;;;;;4992408;28;20389;-70
2021/11/24 10:03:05;;;;;;;0.70;0.70;;;1.70;99.90;;;;;;4992832;28;20473;-69
2021/11/24 10:05:32;;;;;;;0.40;0.20;;;1.80;99.90;;;;;;4991686;28;20411;-70
2021/11/24 10:07:58;;;;;;;0.60;0.60;;;1.80;99.90;;;;;;4993343;28;20529;-70
2021/11/24 10:10:25;;;;;;;0.40;0.20;;;1.90;99.90;;;;;;4992340;28;20849;-70
2021/11/24 10:12:51;;;;;;;1.60;1.00;;;2.10;99.90;;;;;;4992349;28;20872;-69
2021/11/24 10:15:39;;;;;;;0.50;0.40;;;2.10;99.90;;;;;;4992428;28;20409;-69
2021/11/24 10:18:31;;;;;;;1.43;0.60;;;2.10;99.90;;;;;;4992790;28;20481;-70
2021/11/24 10:21:03;;;;;;;0.40;0.20;;;2.10;99.90;;;;;;4992183;28;20395;-70
2021/11/24 10:23:37;;;;;;;0.40;0.20;;;2.10;99.90;;;;;;4992540;28;20422;-70
2021/11/24 10:26:20;;;;;;;0.40;0.30;;;2.00;99.90;;;;;;4992657;28;20469;-69
2021/11/24 10:28:54;;;;;;;0.90;0.90;;;2.00;99.90;;;;;;4991968;28;20485;-70
2021/11/24 10:31:27;;;;;;;0.73;0.40;;;2.10;99.90;;;;;;4992401;28;20461;-70
2021/11/24 10:33:53;;;;;;;1.10;0.50;;;2.30;99.90;;;;;;4991667;28;20382;-70
2021/11/24 10:36:19;;;;;;;0.80;0.80;;;2.50;99.90;;;;;;4992815;28;20387;-70
2021/11/24 10:38:47;;;;;;;0.63;0.63;;;2.40;99.90;;;;;;4974397;28;20405;-70
2021/11/24 10:41:39;;;;;;;0.40;0.20;;;2.30;99.90;;;;;;4992743;28;20387;-70
2021/11/24 10:44:06;;;;;;;0.40;0.20;;;2.30;99.90;;;;;;4991477;28;20397;-70
2021/11/24 10:46:34;;;;;;;0.40;0.20;;;2.50;99.90;;;;;;4975005;28;20414;-69
2021/11/24 10:49:06;;;;;;;0.40;0.20;;;2.70;99.90;;;;;;4973740;28;20414;-68
2021/11/24 10:51:34;;;;;;;0.40;0.30;;;2.60;99.90;;;;;;4992439;28;20716;-69
2021/11/24 10:54:20;;;;;;;0.40;0.30;;;2.70;99.90;;;;;;4990732;28;20402;-69
2021/11/24 10:57:04;;;;;;;0.40;0.20;;;2.80;99.90;;;;;;4974912;28;20578;-70
2021/11/24 10:59:33;;;;;;;0.40;0.20;;;3.30;99.90;;;;;;4992818;28;20453;-69
2021/11/24 11:02:20;;;;;;;0.40;0.38;;;3.60;99.90;;;;;;5010977;28;20381;-71
2021/11/24 11:05:06;;;;;;;0.40;0.20;;;4.00;99.90;;;;;;5001378;28;20467;-69
2021/11/24 11:07:53;;;;;;;0.40;0.20;;;4.50;99.90;;;;;;5011798;28;20475;-70
2021/11/24 11:10:29;;;;;;;0.40;0.20;;;5.00;99.90;;;;;;5010607;28;20870;-70
2021/11/24 11:13:04;;;;;;;0.40;0.20;;;5.00;99.80;;;;;;5011550;28;20748;-70
2021/11/24 11:15:33;;;;;;;0.40;0.20;;;6.00;98.70;;;;;;5011303;28;20423;-69
2021/11/24 11:18:00;;;;;;;0.40;0.20;;;6.30;98.10;;;;;;5011522;28;20401;-69
2021/11/24 11:20:47;;;;;;;0.40;0.20;;;6.40;97.30;;;;;;5010815;28;20476;-70
2021/11/24 11:23:32;;;;;;;0.40;0.20;;;6.30;97.30;;;;;;5009900;28;20416;-70
2021/11/24 11:26:08;;;;;;;0.40;0.20;;;7.00;95.30;;;;;;5011027;28;20420;-69
2021/11/24 11:28:42;;;;;;;0.60;0.60;;;6.60;95.00;;;;;;5010790;28;20473;-69
2021/11/24 11:31:11;;;;;;;0.40;0.20;;;6.70;95.50;;;;;;5011064;28;20384;-68
2021/11/24 11:33:43;;;;;;;0.40;0.30;;;6.90;94.50;;;;;;4993047;28;20395;-68
2021/11/24 11:36:11;;;;;;;0.40;0.20;;;6.70;95.20;;;;;;5011149;28;20388;-68
2021/11/24 11:38:44;;;;;;;0.40;0.20;;;6.70;94.60;;;;;;5010098;28;20388;-68
2021/11/24 11:41:10;;;;;;;0.40;0.20;;;6.80;93.60;;;;;;4989059;28;20404;-68
2021/11/24 11:43:36;;;;;;;0.40;0.20;;;6.70;94.40;;;;;;5010289;28;20399;-68
2021/11/24 11:46:16;;;;;;;0.80;0.80;;;7.50;93.90;;;;;;5010563;28;20412;-68
2021/11/24 11:48:44;;;;;;;0.40;0.20;;;7.20;92.50;;;;;;5010080;28;20393;-68
2021/11/24 11:51:10;;;;;;;0.40;0.20;;;7.80;93.10;;;;;;4992667;28;20400;-68
2021/11/24 11:53:45;;;;;;;0.40;0.30;;;7.30;92.40;;;;;;5010282;28;20388;-68
2021/11/24 11:56:17;;;;;;;0.40;0.40;;;7.30;93.20;;;;;;5010582;28;20408;-68
2021/11/24 11:58:53;;;;;;;0.40;0.20;;;7.30;93.80;;;;;;4997765;28;20394;-69
2021/11/24 12:01:27;;;;;;;0.50;0.50;;;6.60;95.50;;;;;;4991528;28;20395;-68
2021/11/24 12:04:17;;;;;;;0.40;0.20;;;7.20;93.60;;;;;;4990240;28;20691;-68
2021/11/24 12:06:47;;;;;;;0.40;0.30;;;6.80;93.70;;;;;;4994388;28;20414;-68
2021/11/24 12:09:18;;;;;;;0.50;0.50;;;6.80;94.70;;;;;;4995402;28;20401;-68
2021/11/24 12:12:04;;;;;;;0.40;0.30;;;6.60;93.40;;;;;;4994270;28;20390;-68
2021/11/24 12:14:51;;;;;;;0.40;0.40;;;6.60;94.50;;;;;;4995477;28;20798;-68
2021/11/24 12:22:48;;;;;;;0.40;0.20;;;6.90;93.90;;;;;;4982355;28;20930;-68
2021/11/24 12:28:06;;;;;;;0.40;0.20;;;5.60;96.40;;;;;;4981142;28;20398;-67
2021/11/24 12:33:17;;;;;;;0.40;0.20;;;5.00;96.90;;;;;;4994067;28;20383;-68
2021/11/24 12:35:56;;;;;;;0.80;0.60;;;4.70;98.00;;;;;;4994594;28;20757;-68
2021/11/24 12:38:25;;;;;;;0.40;0.20;;;4.80;98.50;;;;;;4994033;28;20465;-68
2021/11/24 12:40:53;;;;;;;0.40;0.30;;;4.40;99.20;;;;;;4994584;28;20394;-68
2021/11/24 12:43:23;;;;;;;0.40;0.30;;;4.50;98.80;;;;;;4993803;28;20382;-68
2021/11/24 12:46:12;;;;;;;1.00;0.80;;;4.40;99.80;;;;;;4977113;28;20454;-68
2021/11/24 12:48:50;;;;;;;0.40;0.20;;;4.40;98.60;;;;;;4994183;28;20486;-69
2021/11/24 12:51:26;;;;;;;0.50;0.40;;;4.60;98.20;;;;;;4974213;28;20412;-69
2021/11/24 12:53:55;;;;;;;0.40;0.20;;;4.60;97.80;;;;;;4974885;28;20877;-68
2021/11/24 12:56:24;;;;;;;0.40;0.20;;;4.50;98.20;;;;;;4973931;28;20421;-69
2021/11/24 12:58:50;;;;;;;0.40;0.20;;;4.40;98.30;;;;;;4988168;28;20394;-69
2021/11/24 13:01:21;;;;;;;0.40;0.20;;;4.50;98.10;;;;;;4984263;28;20446;-69
2021/11/24 13:03:53;;;;;;;0.40;0.28;;;4.50;98.00;;;;;;4974646;28;20426;-69
2021/11/24 13:06:21;;;;;;;1.30;0.85;;;4.50;97.80;;;;;;4956345;28;20743;-69